Bartahatchie, Mississippi
Current Conditions -  °F | °C
As of 1:58 PM on Monday 24 Nov 2014 (Local Time) from KCBM Reporting Station
Clear Clear  
Wind Chill: 61°   Ceiling: Unl
Heat Index: 61°   Visibility: 10mi
Dew Point: 39°   Wind: 6mph
Humidity: 43%   Direction: 290°WNW
Pressure: 29.89"   Gusts: NA
Location:  33.6943°N, 88.3042°W
Report Text: KCBM 241958Z AUTO 29005KT 10SM CLR 16/04 A2989 RMK AO2 SLP124 T01620037 $
Loading
Personal Weather Stations






























Interactive Weather Map New forecast layout! Learn more

10-Day Weather Forecast

Advertisements
Track Severe Weather on mobile